METAR Data
IDs: Format: Raw Decoded Include TAF

Data at: 0609 UTC 24 Sep 2018

KSJX 240556Z AUTO 11015G20KT 10SM OVC017 12/09 A3027 RMK AO2 T01230093 10125 20115 401930102
KSJX 240555Z AUTO 11013G20KT 10SM OVC017 12/09 A3027 RMK AO2 T01230093 10125 20115 401930102
KSJX 240536Z AUTO 10014G19KT 10SM OVC017 12/10 A3027 RMK AO2 T01240095
KSJX 240535Z AUTO 10011G19KT 10SM OVC017 12/10 A3027 RMK AO2 T01240095
KSJX 240516Z AUTO 10015G20KT 10SM OVC017 12/10 A3027 RMK AO2 T01240095
KSJX 240515Z AUTO 10014G20KT 10SM OVC017 13/10 A3027 RMK AO2 T01250095
KSJX 240456Z AUTO 10013G17KT 10SM BKN015 OVC020 12/10 A3027 RMK AO2 T01230097
KSJX 240455Z AUTO 10012G17KT 10SM BKN015 OVC020 12/10 A3027 RMK AO2 T01230097
KSJX 240436Z AUTO 09011KT 10SM OVC015 12/10 A3027 RMK AO2 T01210097
KSJX 240435Z AUTO 09011KT 10SM OVC015 12/10 A3027 RMK AO2 T01210097
KSJX 240416Z AUTO 10012G17KT 10SM SCT010 OVC016 12/10 A3027 RMK AO2 T01200097
KSJX 240415Z AUTO 10012G17KT 10SM SCT010 OVC016 12/10 A3027 RMK AO2 T01200096
KSJX 240356Z AUTO 10015G18KT 10SM OVC013 12/10 A3027 RMK AO2 T01180096
KSJX 240355Z AUTO 10012G18KT 10SM OVC013 12/10 A3027 RMK AO2 T01180095
KSJX 240336Z AUTO 10014G21KT 10SM OVC013 12/10 A3027 RMK AO2 T01170095
KSJX 240335Z AUTO 10016G21KT 10SM OVC013 12/10 A3027 RMK AO2 T01170095
KSJX 240316Z AUTO 09015G24KT 10SM OVC011 12/09 A3027 RMK AO2 T01160093
KSJX 240315Z AUTO 10015G24KT 10SM OVC011 12/09 A3027 RMK AO2 T01160093
KSJX 240256Z AUTO 10014G23KT 10SM BKN011 OVC017 12/09 A3026 RMK AO2 T01150093
KSJX 240255Z AUTO 10014G23KT 10SM BKN011 OVC017 12/09 A3027 RMK AO2 T01150093
KSJX 240236Z AUTO 09016G21KT 10SM OVC011 12/09 A3027 RMK AO2 T01150094
KSJX 240235Z AUTO 09015G21KT 10SM OVC011 12/09 A3027 RMK AO2 T01150094
KSJX 240216Z AUTO 09016G22KT 10SM OVC009 12/10 A3026 RMK AO2 T01150095
KSJX 240215Z AUTO 09016G22KT 10SM OVC009 12/10 A3027 RMK AO2 T01150095
KSJX 240156Z AUTO 09016G21KT 10SM OVC009 12/10 A3027 RMK AO2 T01150096
KSJX 240155Z AUTO 09015G20KT 10SM OVC009 12/10 A3027 RMK AO2 T01150096
KSJX 240136Z AUTO 09011G19KT 10SM OVC009 12/10 A3026 RMK AO2 T01150096
KSJX 240135Z AUTO 09013G19KT 10SM OVC009 12/10 A3026 RMK AO2 T01150096
KSJX 240116Z AUTO 09015G22KT 10SM OVC009 12/10 A3026 RMK AO2 T01160095
KSJX 240115Z AUTO 09015G22KT 10SM OVC009 12/10 A3026 RMK AO2 T01160095
KSJX 240056Z AUTO 08014G18KT 10SM OVC009 12/10 A3025 RMK AO2 T01160095
KSJX 240055Z AUTO 08013G18KT 10SM OVC009 12/10 A3025 RMK AO2 T01160095
KSJX 240036Z AUTO 09014G19KT 10SM BKN009 OVC013 12/10 A3025 RMK AO2 T01170095
KSJX 240035Z AUTO 08012G19KT 10SM BKN009 OVC013 12/10 A3025 RMK AO2 T01170095
KSJX 240016Z AUTO 09014G19KT 10SM OVC009 12/10 A3025 RMK AO2 T01180095
KSJX 240015Z AUTO 09014G19KT 10SM OVC009 12/10 A3024 RMK AO2 T01180095
KSJX 232356Z AUTO 09012KT 10SM BKN009 OVC013 12/10 A3024 RMK AO2 T01180095 10193 20118
KSJX 232355Z AUTO 09012KT 10SM BKN009 OVC013 12/10 A3024 RMK AO2 T01180095 10193 20118
KSJX 232336Z AUTO 09014G20KT 10SM BKN009 OVC013 12/10 A3024 RMK AO2 T01210098
KSJX 232335Z AUTO 09014G20KT 10SM BKN009 OVC013 12/10 A3024 RMK AO2 T01220098
KSJX 232316Z AUTO 09014G24KT 10SM OVC009 13/10 A3024 RMK AO2 T01250100
KSJX 232315Z AUTO 09015G24KT 10SM OVC009 13/10 A3024 RMK AO2 T01250100
KSJX 232256Z AUTO 09010G18KT 10SM OVC011 13/10 A3024 RMK AO2 T01260101
KSJX 232255Z AUTO 08010G18KT 10SM OVC011 13/10 A3024 RMK AO2 T01270102
KSJX 232236Z AUTO 09013G16KT 10SM OVC011 13/10 A3024 RMK AO2 T01330104
KSJX 232235Z AUTO 08012G16KT 10SM OVC011 13/11 A3024 RMK AO2 T01330105
KSJX 232216Z AUTO 08012G17KT 10SM BKN009 BKN015 OVC050 14/11 A3023 RMK AO2 T01370108
KSJX 232215Z AUTO 08011G17KT 10SM BKN009 BKN015 OVC050 14/11 A3023 RMK AO2 T01380108
KSJX 232156Z AUTO 08011G16KT 10SM SCT011 BKN039 OVC050 14/11 A3023 RMK AO2 T01420111
KSJX 232155Z AUTO 08012G16KT 10SM SCT011 SCT014 OVC050 14/11 A3023 RMK AO2 T01420111
KSJX 232136Z AUTO 08010KT 10SM SCT011 BKN030 OVC039 15/12 A3023 RMK AO2 T01470115
KSJX 232135Z AUTO 08010KT 10SM SCT011 BKN030 OVC039 15/12 A3023 RMK AO2 T01480115
KSJX 232116Z AUTO 07009G14KT 10SM BKN026 OVC035 15/12 A3022 RMK AO2 T01520120
KSJX 232115Z AUTO 08009G14KT 10SM SCT020 BKN028 OVC035 15/12 A3022 RMK AO2 T01520120
KSJX 232056Z AUTO 01006KT 10SM BKN035 OVC048 17/10 A3022 RMK AO2 T01680103
KSJX 232055Z AUTO 01005KT 10SM BKN035 OVC048 17/10 A3022 RMK AO2 T01690102
KSJX 232036Z AUTO 33005KT 10SM SCT033 OVC050 18/10 A3022 RMK AO2 T01750101
KSJX 232035Z AUTO 35005KT 10SM SCT033 OVC050 18/10 A3022 RMK AO2 T01750101
KSJX 232016Z AUTO 33006KT 10SM SCT032 SCT040 BKN050 19/10 A3021 RMK AO2 T01880100
KSJX 232015Z AUTO 31004KT 10SM SCT032 SCT040 BKN050 19/10 A3021 RMK AO2 T01880099
KSJX 231956Z AUTO 28004KT 10SM SCT042 BKN050 18/10 A3022 RMK AO2 T01800098
KSJX 231955Z AUTO 27005KT 10SM SCT042 BKN050 18/10 A3021 RMK AO2 T01770100
KSJX 231936Z AUTO 26007KT 10SM SCT026 SCT033 SCT040 19/11 A3022 RMK AO2 T01930107
KSJX 231935Z AUTO 27005KT 10SM SCT026 SCT033 BKN048 19/11 A3021 RMK AO2 T01920107
KSJX 231916Z AUTO 25007KT 10SM SCT024 SCT034 BKN049 18/11 A3021 RMK AO2 T01810111
KSJX 231915Z AUTO 26008KT 250V310 10SM SCT024 SCT034 BKN049 18/11 A3021 RMK AO2 T01810111
KSJX 231856Z AUTO 22004KT 10SM SCT024 BKN050 18/11 A3022 RMK AO2 T01780108
KSJX 231855Z AUTO 23006KT 10SM SCT024 BKN050 18/11 A3022 RMK AO2 T01790107
KSJX 231836Z AUTO 23005KT 10SM SCT024 BKN050 18/11 A3021 RMK AO2 T01810109
KSJX 231835Z AUTO 23007KT 210V270 10SM SCT024 BKN050 18/11 A3021 RMK AO2 T01810108
KSJX 231816Z AUTO 26003KT 10SM BKN050 19/11 A3021 RMK AO2 T01880106
KSJX 231815Z AUTO 29003KT 10SM BKN050 19/11 A3021 RMK AO2 T01880106
KSJX 231756Z AUTO 25009KT 10SM SCT025 SCT033 BKN050 19/10 A3022 RMK AO2 T01900101 10191 20105
KSJX 231755Z AUTO 25009KT 10SM SCT025 SCT033 BKN050 19/10 A3022 RMK AO2 T01900101 10191 20105
KSJX 231736Z AUTO 25009KT 10SM SCT025 BKN042 OVC050 19/11 A3022 RMK AO2 T01850105
KSJX 231735Z AUTO 24010KT 10SM SCT025 BKN042 OVC050 18/11 A3022 RMK AO2 T01830105
KSJX 231716Z AUTO 23006KT 10SM SCT050 19/11 A3022 RMK AO2 T01880108
KSJX 231715Z AUTO 24007KT 10SM SCT050 19/11 A3022 RMK AO2 T01870108
KSJX 231656Z AUTO 25009KT 10SM CLR 18/11 A3021 RMK AO2 T01810107
KSJX 231655Z AUTO 25009KT 10SM CLR 18/11 A3021 RMK AO2 T01810107
KSJX 231636Z AUTO 22005KT 10SM SCT024 18/11 A3022 RMK AO2 T01800105
KSJX 231635Z AUTO 20006KT 190V250 10SM SCT024 18/11 A3022 RMK AO2 T01800105
KSJX 231616Z AUTO 22005KT 170V260 10SM SCT024 18/11 A3022 RMK AO2 T01780105
KSJX 231615Z AUTO 22007KT 10SM SCT024 18/10 A3022 RMK AO2 T01780104
KSJX 231556Z AUTO 23008KT 10SM CLR 18/11 A3021 RMK AO2 T01800107
KSJX 231555Z AUTO 23009KT 200V260 10SM CLR 18/11 A3021 RMK AO2 T01810107
KSJX 231536Z AUTO 22007KT 10SM CLR 18/11 A3021 RMK AO2 T01780105
KSJX 231535Z AUTO 22008KT 10SM CLR 18/11 A3021 RMK AO2 T01790106
KSJX 231516Z AUTO 23006KT 10SM CLR 17/10 A3022 RMK AO2 T01670104
KSJX 231515Z AUTO 24006KT 10SM CLR 17/11 A3022 RMK AO2 T01670105
KSJX 231456Z AUTO 27004KT 10SM CLR 16/11 A3022 RMK AO2 T01610107
KSJX 231455Z AUTO 25004KT 10SM CLR 16/11 A3022 RMK AO2 T01610106
KSJX 231436Z AUTO 29003KT 10SM CLR 16/10 A3022 RMK AO2 T01610104
KSJX 231435Z AUTO 27005KT 10SM CLR 16/10 A3022 RMK AO2 T01610104
KSJX 231416Z AUTO 27005KT 10SM CLR 16/11 A3021 RMK AO2 T01600106
KSJX 231415Z AUTO 27005KT 10SM CLR 16/11 A3021 RMK AO2 T01600106
KSJX 231356Z AUTO 00000KT 10SM CLR 16/11 A3020 RMK AO2 T01590107
KSJX 231355Z AUTO 28003KT 10SM CLR 16/11 A3020 RMK AO2 T01580107
KSJX 231336Z AUTO 27004KT 10SM CLR 16/11 A3020 RMK AO2 T01600107
KSJX 231335Z AUTO 26003KT 10SM CLR 16/11 A3020 RMK AO2 T01600108
KSJX 231316Z AUTO 28003KT 10SM SCT019 SCT049 15/11 A3020 RMK AO2 T01480108
KSJX 231315Z AUTO 28003KT 10SM SCT019 SCT049 15/11 A3020 RMK AO2 T01480109
KSJX 231256Z AUTO 29003KT 10SM SCT017 SCT028 OVC049 15/12 A3020 RMK AO2 T01460116
KSJX 231255Z AUTO 29003KT 10SM SCT017 SCT028 OVC049 15/12 A3020 RMK AO2 T01460116
KSJX 231236Z AUTO 00000KT 10SM BKN017 BKN027 BKN033 13/12 A3019 RMK AO2 T01330119
KSJX 231235Z AUTO 00000KT 10SM BKN017 BKN027 BKN033 13/12 A3019 RMK AO2 T01310118
KSJX 231216Z AUTO 00000KT 10SM SCT017 SCT042 11/10 A3019 RMK AO2 T01100100
KSJX 231215Z AUTO 00000KT 10SM SCT017 SCT042 11/10 A3019 RMK AO2 T01100100
KSJX 231156Z AUTO 00000KT 10SM SCT017 11/10 A3018 RMK AO2 T01050095 10151 20102
KSJX 231155Z AUTO 00000KT 10SM SCT017 11/10 A3018 RMK AO2 T01050095 10151 20102
KSJX 231136Z AUTO 00000KT 10SM SCT019 13/10 A3018 RMK AO2 T01280099
KSJX 231135Z AUTO 00000KT 10SM SCT019 13/10 A3018 RMK AO2 T01290101
KSJX 231116Z AUTO 26003KT 10SM CLR 13/10 A3018 RMK AO2 T01260096
KSJX 231115Z AUTO 26003KT 10SM CLR 13/10 A3018 RMK AO2 T01260096
KSJX 231056Z AUTO 26005KT 10SM CLR 13/10 A3018 RMK AO2 T01270095
KSJX 231055Z AUTO 26005KT 10SM CLR 13/10 A3018 RMK AO2 T01280095
KSJX 231036Z AUTO 26008KT 10SM CLR 14/10 A3018 RMK AO2 T01350095
KSJX 231035Z AUTO 25008KT 10SM CLR 14/10 A3018 RMK AO2 T01350095
KSJX 231016Z AUTO 25007KT 10SM CLR 14/10 A3018 RMK AO2 T01390095
KSJX 231015Z AUTO 25008KT 10SM CLR 14/10 A3018 RMK AO2 T01390095
KSJX 230956Z AUTO 25008KT 10SM CLR 14/10 A3018 RMK AO2 T01390103
KSJX 230955Z AUTO 25007KT 10SM CLR 14/10 A3018 RMK AO2 T01390104
KSJX 230936Z AUTO 26009KT 10SM SCT022 SCT030 SCT036 14/11 A3018 RMK AO2 T01410105
KSJX 230935Z AUTO 25008KT 10SM SCT022 SCT030 SCT036 14/11 A3018 RMK AO2 T01410105
KSJX 230916Z AUTO 25008KT 10SM SCT022 SCT030 SCT035 15/11 A3017 RMK AO2 T01450106
KSJX 230915Z AUTO 25008KT 10SM SCT022 SCT030 SCT035 15/11 A3017 RMK AO2 T01450106
KSJX 230856Z AUTO 25008KT 10SM SCT022 14/10 A3017 RMK AO2 T01430104
KSJX 230855Z AUTO 25008KT 10SM SCT022 14/11 A3017 RMK AO2 T01430105
KSJX 230836Z AUTO 24009KT 10SM SCT022 SCT110 15/11 A3017 RMK AO2 T01450105
KSJX 230835Z AUTO 24008KT 10SM SCT022 SCT110 15/11 A3017 RMK AO2 T01450105
KSJX 230816Z AUTO 24008KT 10SM SCT090 BKN110 15/10 A3017 RMK AO2 T01460103
KSJX 230815Z AUTO 24009KT 10SM SCT090 BKN110 15/10 A3017 RMK AO2 T01460103
KSJX 230756Z AUTO 23008KT 10SM BKN090 BKN110 15/10 A3016 RMK AO2 T01450100
KSJX 230755Z AUTO 24007KT 10SM BKN090 BKN110 15/10 A3016 RMK AO2 T01460100
KSJX 230736Z AUTO 24007KT 10SM BKN090 OVC110 15/10 A3016 RMK AO2 T01500099
KSJX 230735Z AUTO 24008KT 10SM BKN090 OVC110 15/10 A3016 RMK AO2 T01500099
KSJX 230716Z AUTO 24007KT 10SM SCT024 OVC090 15/10 A3017 RMK AO2 T01510100
KSJX 230715Z AUTO 24008KT 10SM SCT024 OVC090 15/10 A3017 RMK AO2 T01510101
KSJX 230656Z AUTO 24006KT 10SM OVC090 15/10 A3017 RMK AO2 T01500097
KSJX 230655Z AUTO 24007KT 10SM OVC090 15/10 A3017 RMK AO2 T01500097
KSJX 230636Z AUTO 23007KT 10SM OVC090 15/09 A3017 RMK AO2 T01500094
KSJX 230635Z AUTO 23007KT 10SM OVC090 15/09 A3017 RMK AO2 T01500093
KSJX 230616Z AUTO 24007KT 10SM OVC090 15/09 A3018 RMK AO2 T01500091
KSJX 230615Z AUTO 23008KT 10SM OVC090 15/09 A3018 RMK AO2 T01500091
KSJX 230556Z AUTO 23006KT 10SM OVC090 15/09 A3017 RMK AO2 T01500090 10150 20083 401640032
KSJX 230555Z AUTO 23007KT 10SM OVC090 15/09 A3017 RMK AO2 T01490090 10149 20083 401640032
KSJX 230536Z AUTO 23006KT 10SM OVC090 15/09 A3018 RMK AO2 T01470090
KSJX 230535Z AUTO 23006KT 10SM OVC090 15/09 A3018 RMK AO2 T01470090
KSJX 230516Z AUTO 24008KT 10SM OVC090 15/09 A3018 RMK AO2 T01460086
KSJX 230515Z AUTO 23008KT 10SM OVC090 15/09 A3018 RMK AO2 T01450086
KSJX 230456Z AUTO 23007KT 10SM OVC100 15/09 A3019 RMK AO2 T01450086
KSJX 230455Z AUTO 23007KT 10SM OVC100 15/09 A3019 RMK AO2 T01450086
KSJX 230436Z AUTO 23006KT 10SM OVC100 14/09 A3018 RMK AO2 T01420089
KSJX 230435Z AUTO 22006KT 10SM OVC100 14/09 A3018 RMK AO2 T01420089
KSJX 230416Z AUTO 22006KT 10SM OVC110 14/09 A3018 RMK AO2 T01410085
KSJX 230415Z AUTO 22005KT 10SM OVC110 14/09 A3018 RMK AO2 T01400085
KSJX 230356Z AUTO 22006KT 10SM BKN110 14/09 A3018 RMK AO2 T01350085
KSJX 230355Z AUTO 22005KT 10SM BKN110 13/08 A3018 RMK AO2 T01340084
KSJX 230336Z AUTO 22007KT 10SM CLR 13/08 A3018 RMK AO2 T01290076
KSJX 230335Z AUTO 22007KT 10SM CLR 13/08 A3018 RMK AO2 T01280076
KSJX 230316Z AUTO 22005KT 10SM SCT100 13/07 A3018 RMK AO2 T01320071
KSJX 230315Z AUTO 22006KT 10SM SCT100 13/07 A3018 RMK AO2 T01320071
KSJX 230256Z AUTO 24007KT 10SM BKN100 13/06 A3019 RMK AO2 T01300061
KSJX 230255Z AUTO 24006KT 10SM BKN100 13/06 A3019 RMK AO2 T01300061
KSJX 230236Z AUTO 22005KT 10SM SCT100 12/06 A3018 RMK AO2 T01230058
KSJX 230235Z AUTO 22006KT 10SM SCT110 12/06 A3019 RMK AO2 T01230059
KSJX 230216Z AUTO 23004KT 10SM CLR 11/06 A3020 RMK AO2 T01100063
KSJX 230215Z AUTO 24003KT 10SM CLR 11/06 A3020 RMK AO2 T01100062
KSJX 230156Z AUTO 22005KT 10SM CLR 12/07 A3018 RMK AO2 T01170067
KSJX 230155Z AUTO 22005KT 10SM CLR 12/07 A3018 RMK AO2 T01160067
KSJX 230136Z AUTO 21003KT 10SM CLR 08/06 A3019 RMK AO2 T00830060
KSJX 230135Z AUTO 20003KT 10SM CLR 08/06 A3019 RMK AO2 T00830060
KSJX 230116Z AUTO 14003KT 10SM CLR 10/06 A3018 RMK AO2 T00990061
KSJX 230115Z AUTO 15003KT 10SM SCT110 10/06 A3018 RMK AO2 T01020060
KSJX 230056Z AUTO 17003KT 10SM SCT110 11/06 A3019 RMK AO2 T01060061
KSJX 230055Z AUTO 18003KT 10SM SCT110 11/06 A3019 RMK AO2 T01080061
KSJX 230036Z AUTO 18003KT 10SM SCT110 10/06 A3020 RMK AO2 T01010064
KSJX 230035Z AUTO 19003KT 10SM CLR 10/06 A3020 RMK AO2 T01020064
KSJX 230016Z AUTO 17003KT 10SM CLR 11/06 A3019 RMK AO2 T01100062
KSJX 230015Z AUTO 17003KT 10SM CLR 11/06 A3019 RMK AO2 T01100062
KSJX 222356Z AUTO 19004KT 10SM CLR 12/06 A3020 RMK AO2 T01190060 10164 20119
KSJX 222355Z AUTO 19003KT 10SM CLR 12/06 A3019 RMK AO2 T01200060 10164 20120
KSJX 222336Z AUTO 21005KT 10SM CLR 12/06 A3020 RMK AO2 T01230058
KSJX 222335Z AUTO 22005KT 10SM CLR 12/06 A3020 RMK AO2 T01220059
KSJX 222316Z AUTO 22004KT 10SM CLR 13/06 A3021 RMK AO2 T01320056
KSJX 222315Z AUTO 22005KT 10SM CLR 13/06 A3021 RMK AO2 T01320057
KSJX 222256Z AUTO 23007KT 10SM CLR 14/06 A3022 RMK AO2 T01380055
KSJX 222255Z AUTO 23007KT 10SM CLR 14/06 A3022 RMK AO2 T01380055
KSJX 222236Z AUTO 24008G15KT 10SM CLR 15/06 A3022 RMK AO2 T01450055
KSJX 222235Z AUTO 24008G15KT 10SM CLR 15/05 A3022 RMK AO2 T01450054
KSJX 222216Z AUTO 23009KT 10SM CLR 15/05 A3022 RMK AO2 T01470047
KSJX 222215Z AUTO 22008KT 10SM CLR 15/05 A3022 RMK AO2 T01470048
KSJX 222156Z AUTO 22009G16KT 10SM CLR 15/05 A3022 RMK AO2 T01510049
KSJX 222155Z AUTO 22010G16KT 10SM CLR 15/05 A3022 RMK AO2 T01510049
KSJX 222136Z AUTO 23011G15KT 10SM CLR 15/05 A3022 RMK AO2 T01530048
KSJX 222135Z AUTO 23010G15KT 10SM CLR 15/05 A3022 RMK AO2 T01530048
KSJX 222116Z AUTO 24012G16KT 10SM SCT036 15/05 A3023 RMK AO2 T01540053
KSJX 222115Z AUTO 24011G16KT 10SM SCT036 16/05 A3023 RMK AO2 T01550051
KSJX 222056Z AUTO 23009G14KT 10SM SCT034 16/06 A3023 RMK AO2 T01570055
KSJX 222055Z AUTO 24010G14KT 10SM SCT034 16/06 A3023 RMK AO2 T01570056
KSJX 222036Z AUTO 25011G15KT 10SM SCT034 16/06 A3024 RMK AO2 T01560055
KSJX 222035Z AUTO 24010G15KT 10SM SCT034 16/06 A3024 RMK AO2 T01560055
KSJX 222016Z AUTO 24010G18KT 10SM SCT034 15/05 A3025 RMK AO2 T01540054
KSJX 222015Z AUTO 25011G18KT 10SM SCT034 15/06 A3025 RMK AO2 T01540055
KSJX 221956Z AUTO 25012G16KT 10SM CLR 16/06 A3025 RMK AO2 T01610058
KSJX 221955Z AUTO 25011G16KT 10SM SCT034 16/06 A3025 RMK AO2 T01610059
KSJX 221936Z AUTO 24010G16KT 10SM SCT034 16/06 A3025 RMK AO2 T01570059
KSJX 221935Z AUTO 23010G16KT 10SM SCT034 16/06 A3025 RMK AO2 T01570060
KSJX 221916Z AUTO 23009G15KT 10SM BKN036 16/06 A3026 RMK AO2 T01580060
KSJX 221915Z AUTO 24010G15KT 190V250 10SM BKN036 16/06 A3026 RMK AO2 T01570061
KSJX 221856Z AUTO 22009G15KT 10SM SCT036 16/06 A3027 RMK AO2 T01610057
KSJX 221855Z AUTO 22010G15KT 10SM SCT036 16/06 A3027 RMK AO2 T01620058
KSJX 221836Z AUTO 25010KT 10SM CLR 16/06 A3027 RMK AO2 T01610057
KSJX 221835Z AUTO 25009KT 10SM CLR 16/06 A3027 RMK AO2 T01610057
KSJX 221816Z AUTO 24010G15KT 10SM SCT035 16/06 A3028 RMK AO2 T01610057
KSJX 221815Z AUTO 24011G15KT 10SM SCT035 16/06 A3028 RMK AO2 T01610057